sensor_id;sensor_type;location;lat;lon;timestamp;P1;durP1;ratioP1;P2;durP2;ratioP2
9467;SDS011;4772;52.382;9.752;2023-12-07T00:02:13;26.87;;;19.07;;
9467;SDS011;4772;52.382;9.752;2023-12-07T00:04:39;23.00;;;19.40;;
9467;SDS011;4772;52.382;9.752;2023-12-07T00:07:05;21.83;;;17.63;;
9467;SDS011;4772;52.382;9.752;2023-12-07T00:09:31;24.53;;;18.47;;
9467;SDS011;4772;52.382;9.752;2023-12-07T00:11:57;26.63;;;18.60;;
9467;SDS011;4772;52.382;9.752;2023-12-07T00:14:23;24.13;;;18.93;;
9467;SDS011;4772;52.382;9.752;2023-12-07T00:16:49;23.27;;;18.07;;
9467;SDS011;4772;52.382;9.752;2023-12-07T00:19:15;20.67;;;17.27;;
9467;SDS011;4772;52.382;9.752;2023-12-07T00:21:41;22.37;;;18.33;;
9467;SDS011;4772;52.382;9.752;2023-12-07T00:24:07;22.13;;;17.90;;
9467;SDS011;4772;52.382;9.752;2023-12-07T00:26:36;25.50;;;19.33;;
9467;SDS011;4772;52.382;9.752;2023-12-07T00:29:03;22.87;;;17.53;;
9467;SDS011;4772;52.382;9.752;2023-12-07T00:31:29;23.93;;;19.50;;
9467;SDS011;4772;52.382;9.752;2023-12-07T00:33:55;23.50;;;18.57;;
9467;SDS011;4772;52.382;9.752;2023-12-07T00:36:21;24.43;;;19.23;;
9467;SDS011;4772;52.382;9.752;2023-12-07T00:38:47;25.03;;;18.27;;
9467;SDS011;4772;52.382;9.752;2023-12-07T00:41:13;22.60;;;18.73;;
9467;SDS011;4772;52.382;9.752;2023-12-07T00:43:39;24.10;;;18.63;;
9467;SDS011;4772;52.382;9.752;2023-12-07T00:46:06;21.03;;;17.90;;
9467;SDS011;4772;52.382;9.752;2023-12-07T00:48:32;22.13;;;17.93;;
9467;SDS011;4772;52.382;9.752;2023-12-07T00:50:58;23.60;;;18.57;;
9467;SDS011;4772;52.382;9.752;2023-12-07T00:53:24;24.70;;;19.47;;
9467;SDS011;4772;52.382;9.752;2023-12-07T00:55:50;24.80;;;19.63;;
9467;SDS011;4772;52.382;9.752;2023-12-07T00:58:16;25.57;;;18.97;;
9467;SDS011;4772;52.382;9.752;2023-12-07T01:00:42;23.67;;;19.93;;
9467;SDS011;4772;52.382;9.752;2023-12-07T01:03:09;24.37;;;19.50;;
9467;SDS011;4772;52.382;9.752;2023-12-07T01:05:35;24.40;;;19.27;;
9467;SDS011;4772;52.382;9.752;2023-12-07T01:08:01;24.90;;;19.13;;
9467;SDS011;4772;52.382;9.752;2023-12-07T01:10:28;24.50;;;19.03;;
9467;SDS011;4772;52.382;9.752;2023-12-07T01:12:54;27.43;;;20.23;;
9467;SDS011;4772;52.382;9.752;2023-12-07T01:15:20;24.40;;;19.50;;
9467;SDS011;4772;52.382;9.752;2023-12-07T01:17:46;27.43;;;19.17;;
9467;SDS011;4772;52.382;9.752;2023-12-07T01:20:12;23.27;;;18.23;;
9467;SDS011;4772;52.382;9.752;2023-12-07T01:22:41;24.97;;;19.93;;
9467;SDS011;4772;52.382;9.752;2023-12-07T01:25:07;26.70;;;20.20;;
9467;SDS011;4772;52.382;9.752;2023-12-07T01:27:34;26.27;;;21.20;;
9467;SDS011;4772;52.382;9.752;2023-12-07T01:30:00;26.60;;;20.03;;
9467;SDS011;4772;52.382;9.752;2023-12-07T01:32:26;27.73;;;20.67;;
9467;SDS011;4772;52.382;9.752;2023-12-07T01:34:52;28.80;;;21.00;;
9467;SDS011;4772;52.382;9.752;2023-12-07T01:37:18;29.47;;;21.70;;
9467;SDS011;4772;52.382;9.752;2023-12-07T01:39:44;26.63;;;21.17;;
9467;SDS011;4772;52.382;9.752;2023-12-07T01:42:10;29.53;;;21.33;;
9467;SDS011;4772;52.382;9.752;2023-12-07T01:44:37;26.90;;;20.53;;
9467;SDS011;4772;52.382;9.752;2023-12-07T01:47:03;28.87;;;20.80;;
9467;SDS011;4772;52.382;9.752;2023-12-07T01:49:29;25.97;;;20.40;;
9467;SDS011;4772;52.382;9.752;2023-12-07T01:51:56;28.37;;;19.97;;
9467;SDS011;4772;52.382;9.752;2023-12-07T01:54:22;27.10;;;20.73;;
9467;SDS011;4772;52.382;9.752;2023-12-07T01:56:48;26.97;;;20.80;;
9467;SDS011;4772;52.382;9.752;2023-12-07T01:59:14;24.67;;;20.93;;
9467;SDS011;4772;52.382;9.752;2023-12-07T02:01:40;28.70;;;20.83;;
9467;SDS011;4772;52.382;9.752;2023-12-07T02:04:06;27.80;;;21.03;;
9467;SDS011;4772;52.382;9.752;2023-12-07T02:06:32;25.37;;;20.03;;
9467;SDS011;4772;52.382;9.752;2023-12-07T02:08:58;26.23;;;20.97;;
9467;SDS011;4772;52.382;9.752;2023-12-07T02:11:24;26.00;;;20.97;;
9467;SDS011;4772;52.382;9.752;2023-12-07T02:13:50;23.67;;;19.33;;
9467;SDS011;4772;52.382;9.752;2023-12-07T02:16:43;24.73;;;19.03;;
9467;SDS011;4772;52.382;9.752;2023-12-07T02:19:13;25.37;;;20.13;;
9467;SDS011;4772;52.382;9.752;2023-12-07T02:21:44;25.87;;;20.47;;
9467;SDS011;4772;52.382;9.752;2023-12-07T02:24:11;26.27;;;19.57;;
9467;SDS011;4772;52.382;9.752;2023-12-07T02:26:41;24.50;;;19.60;;
9467;SDS011;4772;52.382;9.752;2023-12-07T02:29:07;23.37;;;18.90;;
9467;SDS011;4772;52.382;9.752;2023-12-07T02:31:33;22.93;;;18.70;;
9467;SDS011;4772;52.382;9.752;2023-12-07T02:33:59;23.77;;;19.73;;
9467;SDS011;4772;52.382;9.752;2023-12-07T02:36:27;26.73;;;19.00;;
9467;SDS011;4772;52.382;9.752;2023-12-07T02:38:55;25.70;;;18.33;;
9467;SDS011;4772;52.382;9.752;2023-12-07T02:41:22;22.77;;;18.10;;
9467;SDS011;4772;52.382;9.752;2023-12-07T02:43:55;23.00;;;18.53;;
9467;SDS011;4772;52.382;9.752;2023-12-07T02:46:22;23.93;;;19.17;;
9467;SDS011;4772;52.382;9.752;2023-12-07T02:48:48;22.13;;;18.23;;
9467;SDS011;4772;52.382;9.752;2023-12-07T02:51:14;23.33;;;18.23;;
9467;SDS011;4772;52.382;9.752;2023-12-07T02:53:40;23.10;;;17.87;;
9467;SDS011;4772;52.382;9.752;2023-12-07T02:56:09;23.43;;;17.73;;
9467;SDS011;4772;52.382;9.752;2023-12-07T02:58:35;22.63;;;17.10;;
9467;SDS011;4772;52.382;9.752;2023-12-07T03:01:01;22.83;;;17.90;;
9467;SDS011;4772;52.382;9.752;2023-12-07T03:03:27;21.50;;;17.73;;
9467;SDS011;4772;52.382;9.752;2023-12-07T03:05:53;20.80;;;17.67;;
9467;SDS011;4772;52.382;9.752;2023-12-07T03:08:19;21.67;;;17.57;;
9467;SDS011;4772;52.382;9.752;2023-12-07T03:10:45;20.70;;;17.30;;
9467;SDS011;4772;52.382;9.752;2023-12-07T03:13:11;22.70;;;17.33;;
9467;SDS011;4772;52.382;9.752;2023-12-07T03:15:37;19.67;;;17.23;;
9467;SDS011;4772;52.382;9.752;2023-12-07T03:18:03;23.17;;;18.40;;
9467;SDS011;4772;52.382;9.752;2023-12-07T03:20:29;20.63;;;17.40;;
9467;SDS011;4772;52.382;9.752;2023-12-07T03:22:55;19.93;;;17.17;;
9467;SDS011;4772;52.382;9.752;2023-12-07T03:25:21;20.27;;;16.50;;
9467;SDS011;4772;52.382;9.752;2023-12-07T03:27:46;20.03;;;17.50;;
9467;SDS011;4772;52.382;9.752;2023-12-07T03:30:12;20.17;;;16.73;;
9467;SDS011;4772;52.382;9.752;2023-12-07T03:32:39;22.57;;;17.23;;
9467;SDS011;4772;52.382;9.752;2023-12-07T03:35:05;23.80;;;17.13;;
9467;SDS011;4772;52.382;9.752;2023-12-07T03:37:31;19.23;;;16.67;;
9467;SDS011;4772;52.382;9.752;2023-12-07T03:39:57;21.17;;;17.43;;
9467;SDS011;4772;52.382;9.752;2023-12-07T03:42:23;23.53;;;17.47;;
9467;SDS011;4772;52.382;9.752;2023-12-07T03:44:49;21.63;;;17.53;;
9467;SDS011;4772;52.382;9.752;2023-12-07T03:47:15;22.00;;;17.33;;
9467;SDS011;4772;52.382;9.752;2023-12-07T03:49:43;21.10;;;16.33;;
9467;SDS011;4772;52.382;9.752;2023-12-07T03:52:09;23.37;;;16.63;;
9467;SDS011;4772;52.382;9.752;2023-12-07T03:54:35;21.47;;;16.93;;
9467;SDS011;4772;52.382;9.752;2023-12-07T03:57:02;19.77;;;17.17;;
9467;SDS011;4772;52.382;9.752;2023-12-07T03:59:29;27.70;;;18.07;;
9467;SDS011;4772;52.382;9.752;2023-12-07T04:01:55;25.10;;;17.87;;
9467;SDS011;4772;52.382;9.752;2023-12-07T04:04:21;22.57;;;17.93;;
9467;SDS011;4772;52.382;9.752;2023-12-07T04:06:47;24.23;;;17.60;;
9467;SDS011;4772;52.382;9.752;2023-12-07T04:09:13;21.53;;;17.23;;
9467;SDS011;4772;52.382;9.752;2023-12-07T04:11:39;22.63;;;17.23;;
9467;SDS011;4772;52.382;9.752;2023-12-07T04:14:05;20.30;;;17.20;;
9467;SDS011;4772;52.382;9.752;2023-12-07T04:16:31;22.20;;;17.23;;
9467;SDS011;4772;52.382;9.752;2023-12-07T04:18:57;22.07;;;17.23;;
9467;SDS011;4772;52.382;9.752;2023-12-07T04:21:23;22.07;;;17.23;;
9467;SDS011;4772;52.382;9.752;2023-12-07T04:23:49;23.67;;;17.90;;
9467;SDS011;4772;52.382;9.752;2023-12-07T04:26:15;24.33;;;16.47;;
9467;SDS011;4772;52.382;9.752;2023-12-07T04:28:41;18.80;;;16.33;;
9467;SDS011;4772;52.382;9.752;2023-12-07T04:31:07;19.50;;;15.97;;
9467;SDS011;4772;52.382;9.752;2023-12-07T04:33:33;20.03;;;16.57;;
9467;SDS011;4772;52.382;9.752;2023-12-07T04:35:59;21.87;;;16.43;;
9467;SDS011;4772;52.382;9.752;2023-12-07T04:38:25;20.63;;;16.93;;
9467;SDS011;4772;52.382;9.752;2023-12-07T04:40:51;19.40;;;16.67;;
9467;SDS011;4772;52.382;9.752;2023-12-07T04:43:17;20.50;;;16.27;;
9467;SDS011;4772;52.382;9.752;2023-12-07T04:45:43;20.20;;;16.53;;
9467;SDS011;4772;52.382;9.752;2023-12-07T04:48:09;20.77;;;15.40;;
9467;SDS011;4772;52.382;9.752;2023-12-07T04:50:35;21.20;;;16.87;;
9467;SDS011;4772;52.382;9.752;2023-12-07T04:53:01;20.90;;;16.43;;
9467;SDS011;4772;52.382;9.752;2023-12-07T04:55:26;20.90;;;16.97;;
9467;SDS011;4772;52.382;9.752;2023-12-07T04:57:53;20.30;;;16.33;;
9467;SDS011;4772;52.382;9.752;2023-12-07T05:00:19;20.13;;;16.27;;
9467;SDS011;4772;52.382;9.752;2023-12-07T05:02:45;22.87;;;16.30;;
9467;SDS011;4772;52.382;9.752;2023-12-07T05:05:11;17.90;;;15.47;;
9467;SDS011;4772;52.382;9.752;2023-12-07T05:07:37;21.67;;;15.40;;
9467;SDS011;4772;52.382;9.752;2023-12-07T05:10:03;18.30;;;15.20;;
9467;SDS011;4772;52.382;9.752;2023-12-07T05:12:29;25.30;;;17.03;;
9467;SDS011;4772;52.382;9.752;2023-12-07T05:14:55;22.70;;;16.83;;
9467;SDS011;4772;52.382;9.752;2023-12-07T05:17:21;19.10;;;15.10;;
9467;SDS011;4772;52.382;9.752;2023-12-07T05:19:47;21.33;;;16.07;;
9467;SDS011;4772;52.382;9.752;2023-12-07T05:22:13;20.87;;;15.80;;
9467;SDS011;4772;52.382;9.752;2023-12-07T05:24:40;20.50;;;15.40;;
9467;SDS011;4772;52.382;9.752;2023-12-07T05:27:06;18.53;;;14.87;;
9467;SDS011;4772;52.382;9.752;2023-12-07T05:29:32;23.23;;;16.63;;
9467;SDS011;4772;52.382;9.752;2023-12-07T05:31:58;17.30;;;14.87;;
9467;SDS011;4772;52.382;9.752;2023-12-07T05:34:24;21.97;;;15.83;;
9467;SDS011;4772;52.382;9.752;2023-12-07T05:36:50;20.40;;;16.30;;
9467;SDS011;4772;52.382;9.752;2023-12-07T05:39:19;20.63;;;16.20;;
9467;SDS011;4772;52.382;9.752;2023-12-07T05:41:45;19.40;;;15.37;;
9467;SDS011;4772;52.382;9.752;2023-12-07T05:44:11;18.53;;;15.27;;
9467;SDS011;4772;52.382;9.752;2023-12-07T05:46:37;19.47;;;16.13;;
9467;SDS011;4772;52.382;9.752;2023-12-07T05:49:08;19.97;;;16.00;;
9467;SDS011;4772;52.382;9.752;2023-12-07T05:51:34;19.80;;;15.13;;
9467;SDS011;4772;52.382;9.752;2023-12-07T05:54:00;19.77;;;15.93;;
9467;SDS011;4772;52.382;9.752;2023-12-07T05:56:27;20.73;;;15.33;;
9467;SDS011;4772;52.382;9.752;2023-12-07T05:58:53;21.53;;;15.70;;
9467;SDS011;4772;52.382;9.752;2023-12-07T06:01:19;20.83;;;15.60;;
9467;SDS011;4772;52.382;9.752;2023-12-07T06:03:45;21.50;;;15.60;;
9467;SDS011;4772;52.382;9.752;2023-12-07T06:06:11;19.43;;;16.00;;
9467;SDS011;4772;52.382;9.752;2023-12-07T06:08:37;21.83;;;16.33;;
9467;SDS011;4772;52.382;9.752;2023-12-07T06:11:03;18.83;;;15.43;;
9467;SDS011;4772;52.382;9.752;2023-12-07T06:13:29;22.30;;;15.23;;
9467;SDS011;4772;52.382;9.752;2023-12-07T06:15:56;20.10;;;14.77;;
9467;SDS011;4772;52.382;9.752;2023-12-07T06:18:22;19.00;;;14.87;;
9467;SDS011;4772;52.382;9.752;2023-12-07T06:20:48;20.53;;;15.00;;
9467;SDS011;4772;52.382;9.752;2023-12-07T06:23:14;20.13;;;14.90;;
9467;SDS011;4772;52.382;9.752;2023-12-07T06:25:41;24.60;;;14.70;;
9467;SDS011;4772;52.382;9.752;2023-12-07T06:28:07;18.83;;;14.60;;
9467;SDS011;4772;52.382;9.752;2023-12-07T06:30:33;19.47;;;14.67;;
9467;SDS011;4772;52.382;9.752;2023-12-07T06:32:59;22.17;;;17.23;;
9467;SDS011;4772;52.382;9.752;2023-12-07T06:35:25;19.77;;;14.80;;
9467;SDS011;4772;52.382;9.752;2023-12-07T06:37:53;20.93;;;14.80;;
9467;SDS011;4772;52.382;9.752;2023-12-07T06:40:19;20.80;;;14.80;;
9467;SDS011;4772;52.382;9.752;2023-12-07T06:42:45;20.90;;;14.50;;
9467;SDS011;4772;52.382;9.752;2023-12-07T06:45:11;20.13;;;14.53;;
9467;SDS011;4772;52.382;9.752;2023-12-07T06:47:39;19.53;;;15.00;;
9467;SDS011;4772;52.382;9.752;2023-12-07T06:50:07;17.87;;;14.70;;
9467;SDS011;4772;52.382;9.752;2023-12-07T06:52:35;23.60;;;15.53;;
9467;SDS011;4772;52.382;9.752;2023-12-07T06:55:01;17.97;;;14.17;;
9467;SDS011;4772;52.382;9.752;2023-12-07T06:57:27;20.23;;;14.50;;
9467;SDS011;4772;52.382;9.752;2023-12-07T06:59:53;19.00;;;14.17;;
9467;SDS011;4772;52.382;9.752;2023-12-07T07:02:19;15.90;;;13.70;;
9467;SDS011;4772;52.382;9.752;2023-12-07T07:04:45;18.43;;;14.73;;
9467;SDS011;4772;52.382;9.752;2023-12-07T07:07:14;20.57;;;14.27;;
9467;SDS011;4772;52.382;9.752;2023-12-07T07:09:40;17.97;;;14.43;;
9467;SDS011;4772;52.382;9.752;2023-12-07T07:12:06;17.30;;;13.70;;
9467;SDS011;4772;52.382;9.752;2023-12-07T07:14:32;19.10;;;14.70;;
9467;SDS011;4772;52.382;9.752;2023-12-07T07:16:59;18.17;;;13.97;;
9467;SDS011;4772;52.382;9.752;2023-12-07T07:19:25;16.70;;;14.43;;
9467;SDS011;4772;52.382;9.752;2023-12-07T07:21:51;22.20;;;14.80;;
9467;SDS011;4772;52.382;9.752;2023-12-07T07:24:17;21.77;;;15.03;;
9467;SDS011;4772;52.382;9.752;2023-12-07T07:26:43;20.53;;;15.07;;
9467;SDS011;4772;52.382;9.752;2023-12-07T07:29:09;18.63;;;14.07;;
9467;SDS011;4772;52.382;9.752;2023-12-07T07:31:35;19.40;;;14.33;;
9467;SDS011;4772;52.382;9.752;2023-12-07T07:34:01;16.67;;;13.33;;
9467;SDS011;4772;52.382;9.752;2023-12-07T07:36:27;18.10;;;13.40;;
9467;SDS011;4772;52.382;9.752;2023-12-07T07:38:57;16.60;;;13.40;;
9467;SDS011;4772;52.382;9.752;2023-12-07T07:41:23;22.30;;;14.17;;
9467;SDS011;4772;52.382;9.752;2023-12-07T07:43:49;17.07;;;13.47;;
9467;SDS011;4772;52.382;9.752;2023-12-07T07:46:15;16.77;;;13.03;;
9467;SDS011;4772;52.382;9.752;2023-12-07T07:48:41;19.77;;;13.13;;
9467;SDS011;4772;52.382;9.752;2023-12-07T07:51:07;16.37;;;12.30;;
9467;SDS011;4772;52.382;9.752;2023-12-07T07:53:33;16.90;;;12.40;;
9467;SDS011;4772;52.382;9.752;2023-12-07T07:55:59;17.50;;;13.43;;
9467;SDS011;4772;52.382;9.752;2023-12-07T07:58:25;18.67;;;12.93;;
9467;SDS011;4772;52.382;9.752;2023-12-07T08:00:51;18.50;;;12.17;;
9467;SDS011;4772;52.382;9.752;2023-12-07T08:03:17;16.20;;;12.77;;
9467;SDS011;4772;52.382;9.752;2023-12-07T08:05:43;17.47;;;13.77;;
9467;SDS011;4772;52.382;9.752;2023-12-07T08:08:10;21.80;;;13.63;;
9467;SDS011;4772;52.382;9.752;2023-12-07T08:10:36;17.70;;;13.73;;
9467;SDS011;4772;52.382;9.752;2023-12-07T08:13:04;20.60;;;13.53;;
9467;SDS011;4772;52.382;9.752;2023-12-07T08:15:30;20.07;;;12.90;;
9467;SDS011;4772;52.382;9.752;2023-12-07T08:17:56;18.67;;;13.60;;
9467;SDS011;4772;52.382;9.752;2023-12-07T08:20:22;18.30;;;13.77;;
9467;SDS011;4772;52.382;9.752;2023-12-07T08:22:48;17.07;;;12.73;;
9467;SDS011;4772;52.382;9.752;2023-12-07T08:25:15;18.73;;;13.67;;
9467;SDS011;4772;52.382;9.752;2023-12-07T08:27:42;18.13;;;14.00;;
9467;SDS011;4772;52.382;9.752;2023-12-07T08:30:12;19.13;;;14.17;;
9467;SDS011;4772;52.382;9.752;2023-12-07T08:32:38;17.27;;;13.10;;
9467;SDS011;4772;52.382;9.752;2023-12-07T08:35:04;20.23;;;13.13;;
9467;SDS011;4772;52.382;9.752;2023-12-07T08:37:31;16.87;;;13.57;;
9467;SDS011;4772;52.382;9.752;2023-12-07T08:39:57;20.60;;;12.77;;
9467;SDS011;4772;52.382;9.752;2023-12-07T08:42:23;18.40;;;12.23;;
9467;SDS011;4772;52.382;9.752;2023-12-07T08:44:51;17.77;;;12.50;;
9467;SDS011;4772;52.382;9.752;2023-12-07T08:47:17;17.97;;;14.43;;
9467;SDS011;4772;52.382;9.752;2023-12-07T08:49:43;16.87;;;12.90;;
9467;SDS011;4772;52.382;9.752;2023-12-07T08:52:09;15.50;;;11.80;;
9467;SDS011;4772;52.382;9.752;2023-12-07T08:54:35;16.40;;;12.47;;
9467;SDS011;4772;52.382;9.752;2023-12-07T08:57:01;17.53;;;13.47;;
9467;SDS011;4772;52.382;9.752;2023-12-07T08:59:28;18.93;;;13.70;;
9467;SDS011;4772;52.382;9.752;2023-12-07T09:01:55;16.37;;;12.50;;
9467;SDS011;4772;52.382;9.752;2023-12-07T09:04:21;18.33;;;13.30;;
9467;SDS011;4772;52.382;9.752;2023-12-07T09:06:47;16.37;;;13.07;;
9467;SDS011;4772;52.382;9.752;2023-12-07T09:09:13;19.03;;;13.77;;
9467;SDS011;4772;52.382;9.752;2023-12-07T09:11:39;23.13;;;15.70;;
9467;SDS011;4772;52.382;9.752;2023-12-07T09:14:05;21.90;;;16.07;;
9467;SDS011;4772;52.382;9.752;2023-12-07T09:16:31;18.63;;;14.60;;
9467;SDS011;4772;52.382;9.752;2023-12-07T09:18:57;19.63;;;14.10;;
9467;SDS011;4772;52.382;9.752;2023-12-07T09:21:23;17.60;;;13.87;;
9467;SDS011;4772;52.382;9.752;2023-12-07T09:23:49;16.90;;;13.10;;
9467;SDS011;4772;52.382;9.752;2023-12-07T09:26:16;16.07;;;12.73;;
9467;SDS011;4772;52.382;9.752;2023-12-07T09:28:41;15.93;;;12.37;;
9467;SDS011;4772;52.382;9.752;2023-12-07T09:31:07;15.87;;;12.40;;
9467;SDS011;4772;52.382;9.752;2023-12-07T09:33:33;16.20;;;12.57;;
9467;SDS011;4772;52.382;9.752;2023-12-07T09:35:59;17.77;;;13.07;;
9467;SDS011;4772;52.382;9.752;2023-12-07T09:38:28;21.07;;;13.40;;
9467;SDS011;4772;52.382;9.752;2023-12-07T09:40:54;19.47;;;12.90;;
9467;SDS011;4772;52.382;9.752;2023-12-07T09:43:20;16.40;;;13.17;;
9467;SDS011;4772;52.382;9.752;2023-12-07T09:45:47;16.37;;;12.77;;
9467;SDS011;4772;52.382;9.752;2023-12-07T09:48:13;19.10;;;14.67;;
9467;SDS011;4772;52.382;9.752;2023-12-07T09:50:39;18.23;;;13.43;;
9467;SDS011;4772;52.382;9.752;2023-12-07T09:53:07;17.37;;;13.87;;
9467;SDS011;4772;52.382;9.752;2023-12-07T09:55:33;21.20;;;13.87;;
9467;SDS011;4772;52.382;9.752;2023-12-07T09:57:59;21.43;;;15.23;;
9467;SDS011;4772;52.382;9.752;2023-12-07T10:00:25;20.37;;;15.70;;
9467;SDS011;4772;52.382;9.752;2023-12-07T10:02:51;16.63;;;13.97;;
9467;SDS011;4772;52.382;9.752;2023-12-07T10:05:17;28.93;;;21.43;;
9467;SDS011;4772;52.382;9.752;2023-12-07T10:07:45;21.57;;;15.87;;
9467;SDS011;4772;52.382;9.752;2023-12-07T10:10:13;19.37;;;15.50;;
9467;SDS011;4772;52.382;9.752;2023-12-07T10:12:52;20.03;;;15.30;;
9467;SDS011;4772;52.382;9.752;2023-12-07T10:15:19;20.33;;;15.53;;
9467;SDS011;4772;52.382;9.752;2023-12-07T10:20:13;22.97;;;15.50;;
9467;SDS011;4772;52.382;9.752;2023-12-07T10:22:39;19.93;;;15.20;;
9467;SDS011;4772;52.382;9.752;2023-12-07T10:25:07;18.07;;;14.80;;
9467;SDS011;4772;52.382;9.752;2023-12-07T10:27:33;19.63;;;15.50;;
9467;SDS011;4772;52.382;9.752;2023-12-07T10:30:00;19.63;;;14.70;;
9467;SDS011;4772;52.382;9.752;2023-12-07T10:32:26;20.53;;;15.40;;
9467;SDS011;4772;52.382;9.752;2023-12-07T10:34:52;19.63;;;15.10;;
9467;SDS011;4772;52.382;9.752;2023-12-07T10:37:21;19.30;;;15.37;;
9467;SDS011;4772;52.382;9.752;2023-12-07T10:39:47;21.03;;;15.40;;
9467;SDS011;4772;52.382;9.752;2023-12-07T10:42:13;20.93;;;16.50;;
9467;SDS011;4772;52.382;9.752;2023-12-07T10:44:41;18.70;;;14.70;;
9467;SDS011;4772;52.382;9.752;2023-12-07T10:47:09;16.97;;;14.07;;
9467;SDS011;4772;52.382;9.752;2023-12-07T10:49:36;19.47;;;14.77;;
9467;SDS011;4772;52.382;9.752;2023-12-07T10:52:06;19.50;;;14.77;;
9467;SDS011;4772;52.382;9.752;2023-12-07T10:54:36;19.97;;;14.70;;
9467;SDS011;4772;52.382;9.752;2023-12-07T10:57:06;19.93;;;15.10;;
9467;SDS011;4772;52.382;9.752;2023-12-07T10:59:33;21.23;;;14.67;;
9467;SDS011;4772;52.382;9.752;2023-12-07T11:02:01;17.77;;;14.53;;
9467;SDS011;4772;52.382;9.752;2023-12-07T11:04:27;21.60;;;15.03;;
9467;SDS011;4772;52.382;9.752;2023-12-07T11:06:54;22.07;;;14.00;;
9467;SDS011;4772;52.382;9.752;2023-12-07T11:09:24;17.40;;;14.23;;
9467;SDS011;4772;52.382;9.752;2023-12-07T11:11:56;20.37;;;13.57;;
9467;SDS011;4772;52.382;9.752;2023-12-07T11:14:23;19.63;;;13.90;;
9467;SDS011;4772;52.382;9.752;2023-12-07T11:16:50;19.83;;;13.63;;
9467;SDS011;4772;52.382;9.752;2023-12-07T11:22:02;17.13;;;13.67;;
9467;SDS011;4772;52.382;9.752;2023-12-07T11:24:29;21.10;;;14.50;;
9467;SDS011;4772;52.382;9.752;2023-12-07T11:26:56;18.00;;;13.90;;
9467;SDS011;4772;52.382;9.752;2023-12-07T11:29:28;20.53;;;13.67;;
9467;SDS011;4772;52.382;9.752;2023-12-07T11:32:01;17.63;;;13.30;;
9467;SDS011;4772;52.382;9.752;2023-12-07T11:34:41;18.27;;;13.60;;
9467;SDS011;4772;52.382;9.752;2023-12-07T11:37:07;17.93;;;13.17;;
9467;SDS011;4772;52.382;9.752;2023-12-07T11:39:40;17.23;;;12.70;;
9467;SDS011;4772;52.382;9.752;2023-12-07T11:42:07;17.97;;;12.83;;
9467;SDS011;4772;52.382;9.752;2023-12-07T11:44:39;17.40;;;12.23;;
9467;SDS011;4772;52.382;9.752;2023-12-07T11:47:06;18.70;;;13.70;;
9467;SDS011;4772;52.382;9.752;2023-12-07T11:49:32;18.47;;;13.70;;
9467;SDS011;4772;52.382;9.752;2023-12-07T11:51:58;17.87;;;14.33;;
9467;SDS011;4772;52.382;9.752;2023-12-07T11:54:27;18.00;;;13.80;;
9467;SDS011;4772;52.382;9.752;2023-12-07T11:56:54;21.93;;;14.30;;
9467;SDS011;4772;52.382;9.752;2023-12-07T11:59:20;23.47;;;15.87;;
9467;SDS011;4772;52.382;9.752;2023-12-07T12:01:47;25.73;;;16.33;;
9467;SDS011;4772;52.382;9.752;2023-12-07T12:04:14;18.00;;;13.90;;
9467;SDS011;4772;52.382;9.752;2023-12-07T12:06:43;18.17;;;13.33;;
9467;SDS011;4772;52.382;9.752;2023-12-07T12:09:11;19.13;;;13.33;;
9467;SDS011;4772;52.382;9.752;2023-12-07T12:11:37;19.77;;;15.27;;
9467;SDS011;4772;52.382;9.752;2023-12-07T12:14:03;16.93;;;14.37;;
9467;SDS011;4772;52.382;9.752;2023-12-07T12:16:29;18.83;;;14.40;;
9467;SDS011;4772;52.382;9.752;2023-12-07T12:18:55;20.73;;;14.20;;
9467;SDS011;4772;52.382;9.752;2023-12-07T12:21:22;21.83;;;15.03;;
9467;SDS011;4772;52.382;9.752;2023-12-07T12:23:48;18.87;;;14.97;;
9467;SDS011;4772;52.382;9.752;2023-12-07T12:26:14;20.23;;;14.97;;
9467;SDS011;4772;52.382;9.752;2023-12-07T12:28:40;21.90;;;15.47;;
9467;SDS011;4772;52.382;9.752;2023-12-07T12:31:09;21.97;;;14.87;;
9467;SDS011;4772;52.382;9.752;2023-12-07T12:33:36;20.00;;;14.57;;
9467;SDS011;4772;52.382;9.752;2023-12-07T12:36:04;21.77;;;15.07;;
9467;SDS011;4772;52.382;9.752;2023-12-07T12:38:31;20.37;;;15.30;;
9467;SDS011;4772;52.382;9.752;2023-12-07T12:40:57;20.90;;;16.00;;
9467;SDS011;4772;52.382;9.752;2023-12-07T12:43:23;24.20;;;16.17;;
9467;SDS011;4772;52.382;9.752;2023-12-07T12:45:49;22.97;;;16.33;;
9467;SDS011;4772;52.382;9.752;2023-12-07T12:48:15;20.50;;;15.73;;
9467;SDS011;4772;52.382;9.752;2023-12-07T12:50:43;21.33;;;16.53;;
9467;SDS011;4772;52.382;9.752;2023-12-07T12:53:10;22.57;;;15.97;;
9467;SDS011;4772;52.382;9.752;2023-12-07T12:55:40;22.40;;;16.00;;
9467;SDS011;4772;52.382;9.752;2023-12-07T12:58:07;21.27;;;16.07;;
9467;SDS011;4772;52.382;9.752;2023-12-07T13:00:33;24.10;;;17.13;;
9467;SDS011;4772;52.382;9.752;2023-12-07T13:03:03;25.97;;;18.20;;
9467;SDS011;4772;52.382;9.752;2023-12-07T13:05:29;22.87;;;16.67;;
9467;SDS011;4772;52.382;9.752;2023-12-07T13:07:55;26.70;;;17.33;;
9467;SDS011;4772;52.382;9.752;2023-12-07T13:10:21;21.20;;;15.67;;
9467;SDS011;4772;52.382;9.752;2023-12-07T13:12:47;21.37;;;15.83;;
9467;SDS011;4772;52.382;9.752;2023-12-07T13:15:13;29.73;;;19.77;;
9467;SDS011;4772;52.382;9.752;2023-12-07T13:17:40;21.43;;;16.30;;
9467;SDS011;4772;52.382;9.752;2023-12-07T13:20:06;25.00;;;16.40;;
9467;SDS011;4772;52.382;9.752;2023-12-07T13:22:44;26.27;;;16.37;;
9467;SDS011;4772;52.382;9.752;2023-12-07T13:25:11;25.17;;;16.97;;
9467;SDS011;4772;52.382;9.752;2023-12-07T13:27:39;23.10;;;16.37;;
9467;SDS011;4772;52.382;9.752;2023-12-07T13:30:06;25.63;;;16.87;;
9467;SDS011;4772;52.382;9.752;2023-12-07T13:32:32;25.83;;;18.40;;
9467;SDS011;4772;52.382;9.752;2023-12-07T13:34:59;28.33;;;19.43;;
9467;SDS011;4772;52.382;9.752;2023-12-07T13:37:25;21.40;;;15.63;;
9467;SDS011;4772;52.382;9.752;2023-12-07T13:39:51;21.83;;;15.63;;
9467;SDS011;4772;52.382;9.752;2023-12-07T13:42:23;23.33;;;16.77;;
9467;SDS011;4772;52.382;9.752;2023-12-07T13:44:51;23.47;;;17.43;;
9467;SDS011;4772;52.382;9.752;2023-12-07T13:47:17;34.77;;;18.40;;
9467;SDS011;4772;52.382;9.752;2023-12-07T13:49:45;25.00;;;16.70;;
9467;SDS011;4772;52.382;9.752;2023-12-07T13:52:11;23.37;;;16.40;;
9467;SDS011;4772;52.382;9.752;2023-12-07T13:54:38;22.00;;;16.00;;
9467;SDS011;4772;52.382;9.752;2023-12-07T13:57:04;22.87;;;16.63;;
9467;SDS011;4772;52.382;9.752;2023-12-07T13:59:30;24.70;;;17.27;;
9467;SDS011;4772;52.382;9.752;2023-12-07T14:01:56;25.30;;;17.00;;
9467;SDS011;4772;52.382;9.752;2023-12-07T14:04:22;26.23;;;17.20;;
9467;SDS011;4772;52.382;9.752;2023-12-07T14:06:48;22.67;;;16.23;;
9467;SDS011;4772;52.382;9.752;2023-12-07T14:09:17;21.87;;;15.83;;
9467;SDS011;4772;52.382;9.752;2023-12-07T14:11:43;21.50;;;15.90;;
9467;SDS011;4772;52.382;9.752;2023-12-07T14:14:09;17.53;;;14.17;;
9467;SDS011;4772;52.382;9.752;2023-12-07T14:16:38;18.00;;;13.70;;
9467;SDS011;4772;52.382;9.752;2023-12-07T14:19:04;18.83;;;14.80;;
9467;SDS011;4772;52.382;9.752;2023-12-07T14:21:30;21.57;;;15.13;;
9467;SDS011;4772;52.382;9.752;2023-12-07T14:23:56;19.23;;;14.20;;
9467;SDS011;4772;52.382;9.752;2023-12-07T14:26:23;22.47;;;15.43;;
9467;SDS011;4772;52.382;9.752;2023-12-07T14:28:49;22.13;;;15.93;;
9467;SDS011;4772;52.382;9.752;2023-12-07T14:31:15;26.10;;;15.80;;
9467;SDS011;4772;52.382;9.752;2023-12-07T14:33:42;22.13;;;16.10;;
9467;SDS011;4772;52.382;9.752;2023-12-07T14:36:09;19.77;;;15.33;;
9467;SDS011;4772;52.382;9.752;2023-12-07T14:38:35;21.77;;;16.13;;
9467;SDS011;4772;52.382;9.752;2023-12-07T14:41:01;22.23;;;16.70;;
9467;SDS011;4772;52.382;9.752;2023-12-07T14:43:29;20.90;;;15.93;;
9467;SDS011;4772;52.382;9.752;2023-12-07T14:45:55;22.50;;;16.73;;
9467;SDS011;4772;52.382;9.752;2023-12-07T14:48:21;21.50;;;15.67;;
9467;SDS011;4772;52.382;9.752;2023-12-07T14:50:48;25.27;;;18.23;;